Accueil
METAR-TAF:

METAR-TAF

Aéroports :

Aéroport d'Osijek

Osijek, Croatie

latitude: 45-27N, longitude: 018-48E, altitude: 88 m

Observation

Le bulletin a été fait il y a 32 minutes, à 22:30 UTC
Vent 5 kt de nord/nord-est
Température -1°C
Humidité 93%
Pression 1023 hPa
Visibilité: 2500 m
brume

METAR: LDOS 252230Z 03005KT 2500 BR NSC M01/M02 Q1023

Heure: 00:02 (23:02 UTC)

Prévision

Le bulletin a été fait il y a 5 heures et 37 minutes, à 17:25 UTC
Prévision valable du 25 à 18 UTC au 26 à 18 UTC
Vent 2 kt de direction variable
Visibilité: 5000 m
Nuages épars à une hauteur de 3000 ft
brume
Probabilité 40%
du 25 à 21 UTC au 26 à 09 UTC
Visibilité: 0100 m
à une hauteur de 100 ft
brouillard givrant
Probabilité 40%
du 26 à 17 UTC au 26 à 18 UTC
Visibilité: 0500 m
brouillard

TAF: LDOS 251725Z 2518/2618 VRB02KT 5000 BR SCT030 TX09/2613Z TNM03/2606Z PROB40 2521/2609 0100 FZFG VV001 PROB40 2617/2618 0500 FG

Observations et prévisions météorologiques de plus de 4000 aéroports (messages METAR et TAF).

Les stations disponibles sont représentées par des disques jaunes et rouges sur la carte.

Passer la souris dessus pour voir le nom de la station.

Cliquer dessus pour voir les observations et prévisions météorologiques.

Pour changer de carte: cliquez sur les boutons verts avec une croix noire pour zoomer, sur le bouton vert avec un tiret pour effectuer un zoom arrière, ou sur les flèches vertes pour les cartes adjacentes.


METAR-TAF: